Time,TemperatureF,DewpointF,PressureIn,WindDirection,WindDirectionDegrees,WindSpeedMPH,WindSpeedGustMPH,Humidity,HourlyPrecipIn,Conditions,Clouds,dailyrainin,SoftwareType,DateUTC
2013-04-11 00:15:00,66.7,55.0,29.65,SSW,202,7.8,-999.0,66,-99.99,,,0.00,Acu-Link.com,2013-04-11 04:15:00,
2013-04-11 00:30:00,66.4,55.1,29.66,SW,225,5.3,-999.0,67,-99.99,,,0.00,Acu-Link.com,2013-04-11 04:30:00,
2013-04-11 00:45:00,65.7,54.8,29.65,WSW,247,2.2,-999.0,68,-99.99,,,0.00,Acu-Link.com,2013-04-11 04:45:00,
2013-04-11 01:00:00,65.5,54.7,29.64,WSW,247,6.3,-999.0,68,-99.99,,,0.00,Acu-Link.com,2013-04-11 05:00:00,
2013-04-11 01:46:00,65.1,53.9,29.64,SW,225,5.8,-999.0,67,-99.99,,,0.00,Acu-Link.com,2013-04-11 05:46:00,
2013-04-11 02:02:00,64.8,53.6,29.64,SW,225,5.8,-999.0,67,-99.99,,,0.00,Acu-Link.com,2013-04-11 06:02:00,
2013-04-11 02:17:00,64.8,53.2,29.64,South,180,4.7,-999.0,66,-99.99,,,0.00,Acu-Link.com,2013-04-11 06:17:00,
2013-04-11 02:32:00,64.8,53.2,29.63,SSE,157,6.8,-999.0,66,-99.99,,,0.00,Acu-Link.com,2013-04-11 06:32:00,
2013-04-11 02:47:00,64.2,53.0,29.63,SSW,202,4.2,-999.0,67,-99.99,,,0.00,Acu-Link.com,2013-04-11 06:47:00,
2013-04-11 03:02:00,63.7,52.9,29.64,SSW,202,4.7,-999.0,68,-99.99,,,0.00,Acu-Link.com,2013-04-11 07:02:00,
2013-04-11 03:17:00,63.1,53.5,29.63,SW,225,2.2,-999.0,71,-99.99,,,0.00,Acu-Link.com,2013-04-11 07:17:00,
2013-04-11 03:33:00,62.6,53.4,29.62,SSW,202,5.3,-999.0,72,-99.99,,,0.00,Acu-Link.com,2013-04-11 07:33:00,
2013-04-11 03:48:00,61.7,53.0,29.62,South,180,4.7,-999.0,73,-99.99,,,0.00,Acu-Link.com,2013-04-11 07:48:00,
2013-04-11 04:03:00,61.0,52.7,29.62,SSW,202,3.7,-999.0,74,-99.99,,,0.00,Acu-Link.com,2013-04-11 08:03:00,
2013-04-11 04:19:00,60.8,52.5,29.62,SSW,202,3.7,-999.0,74,-99.99,,,0.00,Acu-Link.com,2013-04-11 08:19:00,
2013-04-11 04:34:00,60.3,52.3,29.61,SSW,202,2.7,-999.0,75,-99.99,,,0.00,Acu-Link.com,2013-04-11 08:34:00,
2013-04-11 04:49:00,59.7,52.1,29.62,SSW,202,3.2,-999.0,76,-99.99,,,0.00,Acu-Link.com,2013-04-11 08:49:00,
2013-04-11 05:04:00,59.4,52.2,29.61,SSW,202,3.7,-999.0,77,-99.99,,,0.00,Acu-Link.com,2013-04-11 09:04:00,
2013-04-11 05:19:00,59.0,52.1,29.61,South,180,4.2,-999.0,78,-99.99,,,0.00,Acu-Link.com,2013-04-11 09:19:00,
2013-04-11 05:34:00,58.8,52.3,29.62,SSW,202,5.3,-999.0,79,-99.99,,,0.00,Acu-Link.com,2013-04-11 09:34:00,
2013-04-11 05:50:00,58.8,52.6,29.62,SSW,202,5.3,-999.0,80,-99.99,,,0.00,Acu-Link.com,2013-04-11 09:50:00,
2013-04-11 06:05:00,58.8,52.6,29.62,SW,225,2.7,-999.0,80,-99.99,,,0.00,Acu-Link.com,2013-04-11 10:05:00,
2013-04-11 06:20:00,58.8,52.6,29.62,SSW,202,3.7,-999.0,80,-99.99,,,0.00,Acu-Link.com,2013-04-11 10:20:00,
2013-04-11 06:35:00,58.8,53.0,29.62,SSW,202,3.7,-999.0,81,-99.99,,,0.00,Acu-Link.com,2013-04-11 10:35:00,
2013-04-11 06:51:00,58.6,53.1,29.62,SW,225,3.7,-999.0,82,-99.99,,,0.00,Acu-Link.com,2013-04-11 10:51:00,
2013-04-11 07:06:00,58.6,53.1,29.63,WNW,292,4.2,-999.0,82,-99.99,,,0.00,Acu-Link.com,2013-04-11 11:06:00,
2013-04-11 07:36:00,58.6,53.5,29.63,WSW,247,4.2,-999.0,83,-99.99,,,0.00,Acu-Link.com,2013-04-11 11:36:00,
2013-04-11 07:51:00,59.0,53.8,29.63,SSW,202,3.7,-999.0,83,-99.99,,,0.00,Acu-Link.com,2013-04-11 11:51:00,
2013-04-11 08:07:00,59.2,54.0,29.64,SSW,202,2.7,-999.0,83,-99.99,,,0.00,Acu-Link.com,2013-04-11 12:07:00,
2013-04-11 08:22:00,59.5,54.0,29.64,SW,225,2.7,-999.0,82,-99.99,,,0.00,Acu-Link.com,2013-04-11 12:22:00,
2013-04-11 08:37:00,59.5,54.0,29.64,South,180,4.7,-999.0,82,-99.99,,,0.00,Acu-Link.com,2013-04-11 12:37:00,
2013-04-11 08:52:00,59.5,54.0,29.64,SSW,202,3.2,-999.0,82,-99.99,,,0.00,Acu-Link.com,2013-04-11 12:52:00,
2013-04-11 09:08:00,59.9,54.4,29.64,SSW,202,2.7,-999.0,82,-99.99,,,0.00,Acu-Link.com,2013-04-11 13:08:00,
2013-04-11 09:23:00,60.3,54.8,29.64,SSW,202,2.7,-999.0,82,-99.99,,,0.00,Acu-Link.com,2013-04-11 13:23:00,
2013-04-11 09:38:00,61.2,55.0,29.64,SSW,202,4.7,-999.0,80,-99.99,,,0.00,Acu-Link.com,2013-04-11 13:38:00,
2013-04-11 09:53:00,62.8,55.8,29.64,NW,315,3.7,-999.0,78,-99.99,,,0.00,Acu-Link.com,2013-04-11 13:53:00,
2013-04-11 10:09:00,63.1,56.1,29.64,SSW,202,2.7,-999.0,78,-99.99,,,0.00,Acu-Link.com,2013-04-11 14:09:00,
2013-04-11 10:24:00,64.2,56.8,29.63,SSW,202,2.2,-999.0,77,-99.99,,,0.00,Acu-Link.com,2013-04-11 14:24:00,
2013-04-11 10:39:00,65.7,57.6,29.64,SW,225,4.2,-999.0,75,-99.99,,,0.00,Acu-Link.com,2013-04-11 14:39:00,
2013-04-11 10:54:00,65.7,57.9,29.64,South,180,2.7,-999.0,76,-99.99,,,0.00,Acu-Link.com,2013-04-11 14:54:00,
2013-04-11 11:10:00,65.3,57.5,29.64,ESE,112,1.7,-999.0,76,-99.99,,,0.00,Acu-Link.com,2013-04-11 15:10:00,
2013-04-11 11:25:00,67.3,58.0,29.64,SSW,202,7.8,-999.0,72,-99.99,,,0.00,Acu-Link.com,2013-04-11 15:25:00,
2013-04-11 11:40:00,68.7,58.1,29.63,SSW,202,2.7,-999.0,69,-99.99,,,0.00,Acu-Link.com,2013-04-11 15:40:00,
2013-04-11 11:55:00,68.5,58.7,29.63,SW,225,6.8,-999.0,71,-99.99,,,0.00,Acu-Link.com,2013-04-11 15:55:00,
2013-04-11 12:10:00,68.0,58.2,29.62,NE,45,1.7,-999.0,71,-99.99,,,0.00,Acu-Link.com,2013-04-11 16:10:00,
2013-04-11 12:25:00,70.0,57.3,29.62,West,270,5.3,-999.0,64,-99.99,,,0.00,Acu-Link.com,2013-04-11 16:25:00,
2013-04-11 12:41:00,70.0,57.3,29.61,West,270,2.7,-999.0,64,-99.99,,,0.00,Acu-Link.com,2013-04-11 16:41:00,
2013-04-11 12:56:00,70.7,56.6,29.60,WSW,247,3.7,-999.0,61,-99.99,,,0.00,Acu-Link.com,2013-04-11 16:56:00,
2013-04-11 13:11:00,71.2,56.1,29.60,WSW,247,6.8,-999.0,59,-99.99,,,0.00,Acu-Link.com,2013-04-11 17:11:00,
2013-04-11 13:26:00,70.5,54.5,29.59,SW,225,4.7,-999.0,57,-99.99,,,0.00,Acu-Link.com,2013-04-11 17:26:00,
2013-04-11 13:57:00,72.1,55.0,29.57,SSE,157,4.2,-999.0,55,-99.99,,,0.00,Acu-Link.com,2013-04-11 17:57:00,
2013-04-11 14:12:00,74.5,55.7,29.57,SSE,157,6.8,-999.0,52,-99.99,,,0.00,Acu-Link.com,2013-04-11 18:12:00,
2013-04-11 14:27:00,72.1,55.0,29.57,West,270,2.7,-999.0,55,-99.99,,,0.00,Acu-Link.com,2013-04-11 18:27:00,
2013-04-11 14:57:00,72.5,55.9,29.55,SSW,202,8.3,-999.0,56,-99.99,,,0.00,Acu-Link.com,2013-04-11 18:57:00,
2013-04-11 15:12:00,72.1,56.5,29.55,SW,225,6.3,-999.0,58,-99.99,,,0.00,Acu-Link.com,2013-04-11 19:12:00,
2013-04-11 15:27:00,72.1,56.5,29.54,South,180,6.8,-999.0,58,-99.99,,,0.00,Acu-Link.com,2013-04-11 19:27:00,
2013-04-11 15:43:00,72.5,56.4,29.53,SSW,202,7.8,-999.0,57,-99.99,,,0.00,Acu-Link.com,2013-04-11 19:43:00,
2013-04-11 15:58:00,73.0,56.9,29.51,WSW,247,4.7,-999.0,57,-99.99,,,0.00,Acu-Link.com,2013-04-11 19:58:00,
2013-04-11 16:13:00,74.8,57.5,29.50,South,180,5.3,-999.0,55,-99.99,,,0.00,Acu-Link.com,2013-04-11 20:13:00,
2013-04-11 16:28:00,73.4,57.2,29.49,SSW,202,6.8,-999.0,57,-99.99,,,0.00,Acu-Link.com,2013-04-11 20:28:00,
2013-04-11 16:44:00,73.4,58.2,29.47,ENE,67,1.1,-999.0,59,-99.99,,,0.00,Acu-Link.com,2013-04-11 20:44:00,
2013-04-11 16:59:00,72.9,58.2,29.47,SE,135,1.1,-999.0,60,-99.99,,,0.00,Acu-Link.com,2013-04-11 20:59:00,
2013-04-11 17:14:00,72.1,57.9,29.47,East,90,2.2,-999.0,61,-99.99,,,0.00,Acu-Link.com,2013-04-11 21:14:00,
2013-04-11 17:29:00,71.6,58.3,29.47,SSW,202,3.2,-999.0,63,-99.99,,,0.00,Acu-Link.com,2013-04-11 21:29:00,
2013-04-11 17:45:00,71.1,58.7,29.47,South,180,3.7,-999.0,65,-99.99,,,0.00,Acu-Link.com,2013-04-11 21:45:00,
2013-04-11 18:00:00,69.8,59.6,29.46,SSW,202,1.7,-999.0,70,-99.99,,,0.00,Acu-Link.com,2013-04-11 22:00:00,
2013-04-11 18:16:00,70.2,59.5,29.46,East,90,1.1,-999.0,69,-99.99,,,0.00,Acu-Link.com,2013-04-11 22:16:00,
2013-04-11 18:46:00,70.3,59.6,29.45,SSW,202,3.2,-999.0,69,-99.99,,,0.00,Acu-Link.com,2013-04-11 22:46:00,
2013-04-11 19:01:00,70.0,59.8,29.44,South,180,4.2,-999.0,70,-99.99,,,0.00,Acu-Link.com,2013-04-11 23:01:00,
2013-04-11 19:47:00,67.8,59.6,29.43,West,270,0.0,-999.0,75,-99.99,,,0.00,Acu-Link.com,2013-04-11 23:47:00,
2013-04-11 20:02:00,67.8,59.6,29.43,SSW,202,3.7,-999.0,75,-99.99,,,0.00,Acu-Link.com,2013-04-12 00:02:00,
2013-04-11 20:17:00,67.8,59.6,29.43,South,180,6.8,-999.0,75,-99.99,,,0.00,Acu-Link.com,2013-04-12 00:17:00,
2013-04-11 20:32:00,67.6,59.8,29.41,SSW,202,2.2,-999.0,76,-99.99,,,0.00,Acu-Link.com,2013-04-12 00:32:00,
2013-04-11 20:48:00,67.6,59.8,29.40,ESE,112,4.2,-999.0,76,-99.99,,,0.00,Acu-Link.com,2013-04-12 00:48:00,
2013-04-11 21:03:00,64.4,61.1,29.42,South,180,8.9,-999.0,89,-99.99,,,0.19,Acu-Link.com,2013-04-12 01:03:00,
2013-04-11 21:18:00,64.2,60.9,29.41,ENE,67,2.7,-999.0,89,-99.99,,,0.19,Acu-Link.com,2013-04-12 01:18:00,
2013-04-11 21:33:00,64.2,61.2,29.41,SSW,202,4.7,-999.0,90,-99.99,,,0.19,Acu-Link.com,2013-04-12 01:33:00,
2013-04-11 21:48:00,64.4,61.4,29.41,WSW,247,3.2,-999.0,90,-99.99,,,0.19,Acu-Link.com,2013-04-12 01:48:00,
2013-04-11 22:04:00,64.9,61.9,29.41,SSW,202,5.8,-999.0,90,-99.99,,,0.19,Acu-Link.com,2013-04-12 02:04:00,
2013-04-11 22:19:00,64.9,61.9,29.40,South,180,4.7,-999.0,90,-99.99,,,0.19,Acu-Link.com,2013-04-12 02:19:00,
2013-04-11 22:34:00,65.3,62.3,29.41,South,180,8.3,-999.0,90,-99.99,,,0.19,Acu-Link.com,2013-04-12 02:34:00,
2013-04-11 22:49:00,65.1,62.1,29.40,SE,135,7.3,-999.0,90,-99.99,,,0.19,Acu-Link.com,2013-04-12 02:49:00,
2013-04-11 23:05:00,65.1,62.1,29.40,SW,225,4.2,-999.0,90,-99.99,,,0.19,Acu-Link.com,2013-04-12 03:05:00,
2013-04-11 23:20:00,65.1,60.8,29.39,ESE,112,5.3,-999.0,86,-99.99,,,0.19,Acu-Link.com,2013-04-12 03:20:00,
2013-04-11 23:35:00,64.8,61.2,29.38,NW,315,7.3,-999.0,88,-99.99,,,0.20,Acu-Link.com,2013-04-12 03:35:00,
2013-04-11 23:50:00,64.8,61.2,29.38,SW,225,12.5,-999.0,88,-99.99,,,0.22,Acu-Link.com,2013-04-12 03:50:00,